sensor_id;sensor_type;location;lat;lon;timestamp;pressure;altitude;pressure_sealevel;temperature
27715;BMP280;16051;53.024;8.630;2022-12-10T00:01:06;100793.59;;;0.52
27715;BMP280;16051;53.024;8.630;2022-12-10T00:05:09;100793.63;;;0.48
27715;BMP280;16051;53.024;8.630;2022-12-10T00:09:20;100792.03;;;0.55
27715;BMP280;16051;53.024;8.630;2022-12-10T00:13:22;100791.31;;;0.51
27715;BMP280;16051;53.024;8.630;2022-12-10T00:17:24;100799.50;;;0.43
27715;BMP280;16051;53.024;8.630;2022-12-10T00:21:30;100807.22;;;0.48
27715;BMP280;16051;53.024;8.630;2022-12-10T00:25:33;100805.56;;;0.62
27715;BMP280;16051;53.024;8.630;2022-12-10T00:29:35;100799.50;;;0.43
27715;BMP280;16051;53.024;8.630;2022-12-10T00:33:38;100802.63;;;0.42
27715;BMP280;16051;53.024;8.630;2022-12-10T00:37:40;100797.97;;;0.42
27715;BMP280;16051;53.024;8.630;2022-12-10T00:41:44;100792.53;;;0.42
27715;BMP280;16051;53.024;8.630;2022-12-10T00:45:46;100798.00;;;0.39
27715;BMP280;16051;53.024;8.630;2022-12-10T00:49:49;100802.22;;;0.40
27715;BMP280;16051;53.024;8.630;2022-12-10T00:53:54;100810.84;;;0.35
27715;BMP280;16051;53.024;8.630;2022-12-10T00:57:58;100811.16;;;0.40
27715;BMP280;16051;53.024;8.630;2022-12-10T01:02:01;100802.94;;;0.51
27715;BMP280;16051;53.024;8.630;2022-12-10T01:06:14;100802.94;;;0.51
27715;BMP280;16051;53.024;8.630;2022-12-10T01:10:17;100816.13;;;0.53
27715;BMP280;16051;53.024;8.630;2022-12-10T01:14:24;100805.25;;;0.53
27715;BMP280;16051;53.024;8.630;2022-12-10T01:18:26;100823.44;;;0.59
27715;BMP280;16051;53.024;8.630;2022-12-10T01:22:28;100821.16;;;0.58
27715;BMP280;16051;53.024;8.630;2022-12-10T01:26:33;100823.84;;;0.61
27715;BMP280;16051;53.024;8.630;2022-12-10T01:30:55;100830.03;;;0.62
27715;BMP280;16051;53.024;8.630;2022-12-10T01:34:57;100833.53;;;0.62
27715;BMP280;16051;53.024;8.630;2022-12-10T01:39:01;100836.25;;;0.62
27715;BMP280;16051;53.024;8.630;2022-12-10T01:43:04;100842.41;;;0.70
27715;BMP280;16051;53.024;8.630;2022-12-10T01:47:08;100849.41;;;0.67
27715;BMP280;16051;53.024;8.630;2022-12-10T01:51:20;100852.53;;;0.66
27715;BMP280;16051;53.024;8.630;2022-12-10T01:55:44;100852.13;;;0.67
27715;BMP280;16051;53.024;8.630;2022-12-10T01:59:55;100859.16;;;0.65
27715;BMP280;16051;53.024;8.630;2022-12-10T02:04:16;100863.03;;;0.64
27715;BMP280;16051;53.024;8.630;2022-12-10T02:08:28;100871.16;;;0.67
27715;BMP280;16051;53.024;8.630;2022-12-10T02:12:45;100861.47;;;0.66
27715;BMP280;16051;53.024;8.630;2022-12-10T02:17:13;100864.91;;;0.70
27715;BMP280;16051;53.024;8.630;2022-12-10T02:21:26;100857.91;;;0.73
27715;BMP280;16051;53.024;8.630;2022-12-10T02:25:37;100863.38;;;0.69
27715;BMP280;16051;53.024;8.630;2022-12-10T02:29:46;100862.59;;;0.72
27715;BMP280;16051;53.024;8.630;2022-12-10T02:33:54;100869.16;;;0.75
27715;BMP280;16051;53.024;8.630;2022-12-10T02:38:06;100857.53;;;0.71
27715;BMP280;16051;53.024;8.630;2022-12-10T02:42:32;100861.41;;;0.73
27715;BMP280;16051;53.024;8.630;2022-12-10T02:46:40;100867.59;;;0.77
27715;BMP280;16051;53.024;8.630;2022-12-10T02:50:43;100864.91;;;0.74
27715;BMP280;16051;53.024;8.630;2022-12-10T02:54:47;100865.66;;;0.74
27715;BMP280;16051;53.024;8.630;2022-12-10T02:59:04;100865.66;;;0.78
27715;BMP280;16051;53.024;8.630;2022-12-10T03:03:33;100862.16;;;0.77
27715;BMP280;16051;53.024;8.630;2022-12-10T03:07:41;100880.34;;;0.84
27715;BMP280;16051;53.024;8.630;2022-12-10T03:11:49;100881.56;;;0.79
27715;BMP280;16051;53.024;8.630;2022-12-10T03:15:54;100864.88;;;0.77
27715;BMP280;16051;53.024;8.630;2022-12-10T03:20:00;100862.56;;;0.76
27715;BMP280;16051;53.024;8.630;2022-12-10T03:24:05;100859.03;;;0.79
27715;BMP280;16051;53.024;8.630;2022-12-10T03:28:09;100864.88;;;0.77
27715;BMP280;16051;53.024;8.630;2022-12-10T03:32:13;100855.53;;;0.78
27715;BMP280;16051;53.024;8.630;2022-12-10T03:36:19;100860.22;;;0.78
27715;BMP280;16051;53.024;8.630;2022-12-10T03:40:24;100854.00;;;0.77
27715;BMP280;16051;53.024;8.630;2022-12-10T03:44:28;100864.06;;;0.80
27715;BMP280;16051;53.024;8.630;2022-12-10T03:48:31;100852.06;;;0.78
27715;BMP280;16051;53.024;8.630;2022-12-10T03:52:34;100846.97;;;0.80
27715;BMP280;16051;53.024;8.630;2022-12-10T03:56:37;100847.78;;;0.77
27715;BMP280;16051;53.024;8.630;2022-12-10T04:00:39;100848.94;;;0.79
27715;BMP280;16051;53.024;8.630;2022-12-10T04:04:42;100850.84;;;0.82
27715;BMP280;16051;53.024;8.630;2022-12-10T04:08:47;100852.06;;;0.78
27715;BMP280;16051;53.024;8.630;2022-12-10T04:12:49;100852.81;;;0.78
27715;BMP280;16051;53.024;8.630;2022-12-10T04:17:12;100859.44;;;0.77
27715;BMP280;16051;53.024;8.630;2022-12-10T04:21:13;100851.31;;;0.74
27715;BMP280;16051;53.024;8.630;2022-12-10T04:25:34;100859.47;;;0.74
27715;BMP280;16051;53.024;8.630;2022-12-10T04:29:55;100857.50;;;0.78
27715;BMP280;16051;53.024;8.630;2022-12-10T04:33:57;100855.97;;;0.73
27715;BMP280;16051;53.024;8.630;2022-12-10T04:37:59;100854.38;;;0.79
27715;BMP280;16051;53.024;8.630;2022-12-10T04:42:29;100847.41;;;0.75
27715;BMP280;16051;53.024;8.630;2022-12-10T04:46:31;100843.91;;;0.74
27715;BMP280;16051;53.024;8.630;2022-12-10T04:50:33;100840.00;;;0.79
27715;BMP280;16051;53.024;8.630;2022-12-10T04:54:35;100850.13;;;0.75
27715;BMP280;16051;53.024;8.630;2022-12-10T04:58:39;100846.63;;;0.74
27715;BMP280;16051;53.024;8.630;2022-12-10T05:02:41;100847.41;;;0.75
27715;BMP280;16051;53.024;8.630;2022-12-10T05:06:43;100838.53;;;0.67
27715;BMP280;16051;53.024;8.630;2022-12-10T05:10:47;100850.56;;;0.70
27715;BMP280;16051;53.024;8.630;2022-12-10T05:14:50;100848.63;;;0.70
27715;BMP280;16051;53.024;8.630;2022-12-10T05:18:54;100851.72;;;0.72
27715;BMP280;16051;53.024;8.630;2022-12-10T05:22:56;100847.00;;;0.76
27715;BMP280;16051;53.024;8.630;2022-12-10T05:27:15;100843.19;;;0.70
27715;BMP280;16051;53.024;8.630;2022-12-10T05:31:21;100842.03;;;0.68
27715;BMP280;16051;53.024;8.630;2022-12-10T05:35:37;100845.56;;;0.65
27715;BMP280;16051;53.024;8.630;2022-12-10T05:39:39;100849.41;;;0.67
27715;BMP280;16051;53.024;8.630;2022-12-10T05:43:45;100846.34;;;0.62
27715;BMP280;16051;53.024;8.630;2022-12-10T05:47:49;100864.66;;;0.58
27715;BMP280;16051;53.024;8.630;2022-12-10T05:51:54;100870.38;;;0.67
27715;BMP280;16051;53.024;8.630;2022-12-10T05:56:00;100868.75;;;0.76
27715;BMP280;16051;53.024;8.630;2022-12-10T06:00:11;100880.53;;;0.59
27715;BMP280;16051;53.024;8.630;2022-12-10T06:04:14;100868.84;;;0.66
27715;BMP280;16051;53.024;8.630;2022-12-10T06:08:17;100882.06;;;0.64
27715;BMP280;16051;53.024;8.630;2022-12-10T06:12:20;100880.91;;;0.65
27715;BMP280;16051;53.024;8.630;2022-12-10T06:16:23;100886.00;;;0.56
27715;BMP280;16051;53.024;8.630;2022-12-10T06:20:27;100891.41;;;0.59
27715;BMP280;16051;53.024;8.630;2022-12-10T06:24:30;100896.44;;;0.64
27715;BMP280;16051;53.024;8.630;2022-12-10T06:28:32;100900.34;;;0.60
27715;BMP280;16051;53.024;8.630;2022-12-10T06:32:34;100905.41;;;0.61
27715;BMP280;16051;53.024;8.630;2022-12-10T06:37:11;100904.19;;;0.62
27715;BMP280;16051;53.024;8.630;2022-12-10T06:41:16;100914.66;;;0.67
27715;BMP280;16051;53.024;8.630;2022-12-10T06:45:18;100899.91;;;0.68
27715;BMP280;16051;53.024;8.630;2022-12-10T06:49:20;100901.44;;;0.69
27715;BMP280;16051;53.024;8.630;2022-12-10T06:53:24;100918.13;;;0.71
27715;BMP280;16051;53.024;8.630;2022-12-10T06:57:26;100915.84;;;0.63
27715;BMP280;16051;53.024;8.630;2022-12-10T07:01:34;100922.44;;;0.65
27715;BMP280;16051;53.024;8.630;2022-12-10T07:05:36;100932.56;;;0.65
27715;BMP280;16051;53.024;8.630;2022-12-10T07:09:40;100922.91;;;0.57
27715;BMP280;16051;53.024;8.630;2022-12-10T07:13:42;100932.97;;;0.60
27715;BMP280;16051;53.024;8.630;2022-12-10T07:17:44;100939.19;;;0.60
27715;BMP280;16051;53.024;8.630;2022-12-10T07:21:46;100946.56;;;0.60
27715;BMP280;16051;53.024;8.630;2022-12-10T07:25:50;100947.31;;;0.64
27715;BMP280;16051;53.024;8.630;2022-12-10T07:29:52;100943.03;;;0.63
27715;BMP280;16051;53.024;8.630;2022-12-10T07:33:56;100943.41;;;0.68
27715;BMP280;16051;53.024;8.630;2022-12-10T07:37:59;100946.91;;;0.65
27715;BMP280;16051;53.024;8.630;2022-12-10T07:42:02;100940.34;;;0.59
27715;BMP280;16051;53.024;8.630;2022-12-10T07:46:08;100943.47;;;0.61
27715;BMP280;16051;53.024;8.630;2022-12-10T07:50:11;100954.72;;;0.60
27715;BMP280;16051;53.024;8.630;2022-12-10T07:54:13;100959.75;;;0.65
27715;BMP280;16051;53.024;8.630;2022-12-10T07:58:23;100950.81;;;0.64
27715;BMP280;16051;53.024;8.630;2022-12-10T08:02:26;100965.16;;;0.68
27715;BMP280;16051;53.024;8.630;2022-12-10T08:06:29;100963.22;;;0.65
27715;BMP280;16051;53.024;8.630;2022-12-10T08:10:33;100970.22;;;0.66
27715;BMP280;16051;53.024;8.630;2022-12-10T08:14:39;100975.59;;;0.77
27715;BMP280;16051;53.024;8.630;2022-12-10T08:18:41;100974.84;;;0.69
27715;BMP280;16051;53.024;8.630;2022-12-10T08:22:46;100993.88;;;0.69
27715;BMP280;16051;53.024;8.630;2022-12-10T08:27:03;100985.69;;;0.73
27715;BMP280;16051;53.024;8.630;2022-12-10T08:31:08;100982.22;;;0.72
27715;BMP280;16051;53.024;8.630;2022-12-10T08:35:12;100995.41;;;0.74
27715;BMP280;16051;53.024;8.630;2022-12-10T08:39:14;100997.34;;;0.77
27715;BMP280;16051;53.024;8.630;2022-12-10T08:43:33;101000.44;;;0.79
27715;BMP280;16051;53.024;8.630;2022-12-10T08:47:37;101002.34;;;0.85
27715;BMP280;16051;53.024;8.630;2022-12-10T08:51:48;101002.69;;;0.91
27715;BMP280;16051;53.024;8.630;2022-12-10T08:55:52;100991.06;;;0.90
27715;BMP280;16051;53.024;8.630;2022-12-10T08:59:54;100998.41;;;0.93
27715;BMP280;16051;53.024;8.630;2022-12-10T09:03:57;100988.28;;;0.97
27715;BMP280;16051;53.024;8.630;2022-12-10T09:07:59;100998.38;;;1.01
27715;BMP280;16051;53.024;8.630;2022-12-10T09:12:02;101006.50;;;1.04
27715;BMP280;16051;53.024;8.630;2022-12-10T09:16:05;101017.69;;;1.13
27715;BMP280;16051;53.024;8.630;2022-12-10T09:20:22;101021.16;;;1.17
27715;BMP280;16051;53.024;8.630;2022-12-10T09:24:24;101018.84;;;1.19
27715;BMP280;16051;53.024;8.630;2022-12-10T09:28:26;101014.56;;;1.18
27715;BMP280;16051;53.024;8.630;2022-12-10T09:32:28;101023.09;;;1.20
27715;BMP280;16051;53.024;8.630;2022-12-10T09:36:32;101025.00;;;1.23
27715;BMP280;16051;53.024;8.630;2022-12-10T09:40:40;101023.47;;;1.22
27715;BMP280;16051;53.024;8.630;2022-12-10T09:44:54;101028.91;;;1.26
27715;BMP280;16051;53.024;8.630;2022-12-10T09:49:07;101019.88;;;1.36
27715;BMP280;16051;53.024;8.630;2022-12-10T09:53:19;101025.28;;;1.39
27715;BMP280;16051;53.024;8.630;2022-12-10T09:57:27;101020.97;;;1.42
27715;BMP280;16051;53.024;8.630;2022-12-10T10:01:32;101026.00;;;1.47
27715;BMP280;16051;53.024;8.630;2022-12-10T10:05:50;101016.22;;;1.53
27715;BMP280;16051;53.024;8.630;2022-12-10T10:10:05;101025.47;;;1.66
27715;BMP280;16051;53.024;8.630;2022-12-10T10:14:24;101030.56;;;1.61
27715;BMP280;16051;53.024;8.630;2022-12-10T10:18:37;101021.53;;;1.67
27715;BMP280;16051;53.024;8.630;2022-12-10T10:22:40;101027.41;;;1.66
27715;BMP280;16051;53.024;8.630;2022-12-10T10:26:44;101027.41;;;1.66
27715;BMP280;16051;53.024;8.630;2022-12-10T10:30:47;101029.28;;;1.72
27715;BMP280;16051;53.024;8.630;2022-12-10T10:34:55;101036.50;;;1.89
27715;BMP280;16051;53.024;8.630;2022-12-10T10:39:26;101040.09;;;1.83
27715;BMP280;16051;53.024;8.630;2022-12-10T10:43:34;101039.91;;;2.01
27715;BMP280;16051;53.024;8.630;2022-12-10T10:47:41;101020.06;;;2.00
27715;BMP280;16051;53.024;8.630;2022-12-10T10:51:44;101031.31;;;2.06
27715;BMP280;16051;53.024;8.630;2022-12-10T10:55:56;101021.56;;;2.05
27715;BMP280;16051;53.024;8.630;2022-12-10T11:00:06;101020.75;;;2.08
27715;BMP280;16051;53.024;8.630;2022-12-10T11:04:15;101014.44;;;2.14
27715;BMP280;16051;53.024;8.630;2022-12-10T11:08:20;101015.69;;;2.10
27715;BMP280;16051;53.024;8.630;2022-12-10T11:12:33;101018.78;;;2.12
27715;BMP280;16051;53.024;8.630;2022-12-10T11:16:37;101017.22;;;2.11
27715;BMP280;16051;53.024;8.630;2022-12-10T11:20:42;101011.72;;;2.14
27715;BMP280;16051;53.024;8.630;2022-12-10T11:24:58;101009.44;;;2.13
27715;BMP280;16051;53.024;8.630;2022-12-10T11:29:15;101012.19;;;2.09
27715;BMP280;16051;53.024;8.630;2022-12-10T11:33:32;101011.81;;;2.07
27715;BMP280;16051;53.024;8.630;2022-12-10T11:37:47;101009.84;;;2.08
27715;BMP280;16051;53.024;8.630;2022-12-10T11:41:58;101005.56;;;2.07
27715;BMP280;16051;53.024;8.630;2022-12-10T11:46:36;101014.97;;;2.06
27715;BMP280;16051;53.024;8.630;2022-12-10T11:50:57;101007.56;;;2.06
27715;BMP280;16051;53.024;8.630;2022-12-10T11:55:23;101015.97;;;2.19
27715;BMP280;16051;53.024;8.630;2022-12-10T11:59:34;101007.53;;;2.10
27715;BMP280;16051;53.024;8.630;2022-12-10T12:04:05;101004.31;;;2.15
27715;BMP280;16051;53.024;8.630;2022-12-10T12:08:19;101002.34;;;2.19
27715;BMP280;16051;53.024;8.630;2022-12-10T12:12:40;101001.56;;;2.18
27715;BMP280;16051;53.024;8.630;2022-12-10T12:17:07;101008.53;;;2.23
27715;BMP280;16051;53.024;8.630;2022-12-10T12:21:14;101007.75;;;2.22
27715;BMP280;16051;53.024;8.630;2022-12-10T12:25:28;101003.44;;;2.25
27715;BMP280;16051;53.024;8.630;2022-12-10T12:29:37;101009.31;;;2.23
27715;BMP280;16051;53.024;8.630;2022-12-10T12:33:51;101005.88;;;2.16
27715;BMP280;16051;53.024;8.630;2022-12-10T12:38:06;101006.28;;;2.14
27715;BMP280;16051;53.024;8.630;2022-12-10T12:42:22;101010.19;;;2.13
27715;BMP280;16051;53.024;8.630;2022-12-10T12:46:35;101016.09;;;2.08
27715;BMP280;16051;53.024;8.630;2022-12-10T12:50:45;101017.28;;;2.04
27715;BMP280;16051;53.024;8.630;2022-12-10T12:54:49;101016.53;;;2.03
27715;BMP280;16051;53.024;8.630;2022-12-10T12:59:04;101017.72;;;2.02
27715;BMP280;16051;53.024;8.630;2022-12-10T13:03:28;101010.38;;;1.95
27715;BMP280;16051;53.024;8.630;2022-12-10T13:07:34;101019.31;;;1.96
27715;BMP280;16051;53.024;8.630;2022-12-10T13:11:38;101015.03;;;1.98
27715;BMP280;16051;53.024;8.630;2022-12-10T13:15:42;101007.69;;;1.92
27715;BMP280;16051;53.024;8.630;2022-12-10T13:20:34;101023.25;;;1.95
27715;BMP280;16051;53.024;8.630;2022-12-10T13:25:13;101024.06;;;1.88
27715;BMP280;16051;53.024;8.630;2022-12-10T13:29:25;101022.13;;;1.89
27715;BMP280;16051;53.024;8.630;2022-12-10T13:33:51;101033.84;;;1.82
27715;BMP280;16051;53.024;8.630;2022-12-10T13:38:04;101042.69;;;1.93
27715;BMP280;16051;53.024;8.630;2022-12-10T13:42:32;101046.25;;;1.90
27715;BMP280;16051;53.024;8.630;2022-12-10T13:47:04;101042.06;;;1.79
27715;BMP280;16051;53.024;8.630;2022-12-10T13:51:46;101042.44;;;1.77
27715;BMP280;16051;53.024;8.630;2022-12-10T13:56:02;101045.63;;;1.72
27715;BMP280;16051;53.024;8.630;2022-12-10T14:00:12;101061.97;;;1.72
27715;BMP280;16051;53.024;8.630;2022-12-10T14:04:50;101066.25;;;1.73
27715;BMP280;16051;53.024;8.630;2022-12-10T14:09:00;101065.47;;;1.73
27715;BMP280;16051;53.024;8.630;2022-12-10T14:13:05;101063.56;;;1.70
27715;BMP280;16051;53.024;8.630;2022-12-10T14:17:14;101065.88;;;1.71
27715;BMP280;16051;53.024;8.630;2022-12-10T14:21:19;101067.81;;;1.71
27715;BMP280;16051;53.024;8.630;2022-12-10T14:25:23;101078.69;;;1.71
27715;BMP280;16051;53.024;8.630;2022-12-10T14:29:25;101075.66;;;1.65
27715;BMP280;16051;53.024;8.630;2022-12-10T14:33:27;101074.88;;;1.65
27715;BMP280;16051;53.024;8.630;2022-12-10T14:37:36;101076.44;;;1.66
27715;BMP280;16051;53.024;8.630;2022-12-10T14:41:40;101074.84;;;1.68
27715;BMP280;16051;53.024;8.630;2022-12-10T14:45:48;101075.69;;;1.62
27715;BMP280;16051;53.024;8.630;2022-12-10T14:49:55;101077.66;;;1.58
27715;BMP280;16051;53.024;8.630;2022-12-10T14:53:58;101077.66;;;1.58
27715;BMP280;16051;53.024;8.630;2022-12-10T14:58:05;101081.53;;;1.57
27715;BMP280;16051;53.024;8.630;2022-12-10T15:02:24;101077.69;;;1.54
27715;BMP280;16051;53.024;8.630;2022-12-10T15:06:28;101071.09;;;1.52
27715;BMP280;16051;53.024;8.630;2022-12-10T15:10:41;101075.81;;;1.44
27715;BMP280;16051;53.024;8.630;2022-12-10T15:14:47;101075.38;;;1.49
27715;BMP280;16051;53.024;8.630;2022-12-10T15:18:50;101089.72;;;1.53
27715;BMP280;16051;53.024;8.630;2022-12-10T15:23:07;101083.97;;;1.44
27715;BMP280;16051;53.024;8.630;2022-12-10T15:27:16;101080.06;;;1.45
27715;BMP280;16051;53.024;8.630;2022-12-10T15:31:31;101081.25;;;1.44
27715;BMP280;16051;53.024;8.630;2022-12-10T15:35:35;101074.63;;;1.45
27715;BMP280;16051;53.024;8.630;2022-12-10T15:39:46;101086.34;;;1.38
27715;BMP280;16051;53.024;8.630;2022-12-10T15:43:58;101080.56;;;1.33
27715;BMP280;16051;53.024;8.630;2022-12-10T15:48:29;101085.59;;;1.34
27715;BMP280;16051;53.024;8.630;2022-12-10T15:52:32;101080.97;;;1.28
27715;BMP280;16051;53.024;8.630;2022-12-10T15:56:35;101093.00;;;1.30
27715;BMP280;16051;53.024;8.630;2022-12-10T16:00:37;101087.97;;;1.29
27715;BMP280;16051;53.024;8.630;2022-12-10T16:04:51;101090.69;;;1.29
27715;BMP280;16051;53.024;8.630;2022-12-10T16:08:53;101087.19;;;1.28
27715;BMP280;16051;53.024;8.630;2022-12-10T16:13:00;101086.44;;;1.24
27715;BMP280;16051;53.024;8.630;2022-12-10T16:17:03;101088.41;;;1.20
27715;BMP280;16051;53.024;8.630;2022-12-10T16:21:07;101088.41;;;1.20
27715;BMP280;16051;53.024;8.630;2022-12-10T16:25:16;101100.47;;;1.23
27715;BMP280;16051;53.024;8.630;2022-12-10T16:29:18;101087.63;;;1.20
27715;BMP280;16051;53.024;8.630;2022-12-10T16:33:24;101095.34;;;1.28
27715;BMP280;16051;53.024;8.630;2022-12-10T16:37:30;101085.69;;;1.20
27715;BMP280;16051;53.024;8.630;2022-12-10T16:41:32;101077.94;;;1.19
27715;BMP280;16051;53.024;8.630;2022-12-10T16:45:37;101080.66;;;1.19
27715;BMP280;16051;53.024;8.630;2022-12-10T16:49:40;101090.78;;;1.15
27715;BMP280;16051;53.024;8.630;2022-12-10T16:53:43;101087.25;;;1.18
27715;BMP280;16051;53.024;8.630;2022-12-10T16:57:46;101085.69;;;1.17
27715;BMP280;16051;53.024;8.630;2022-12-10T17:01:48;101083.44;;;1.08
27715;BMP280;16051;53.024;8.630;2022-12-10T17:05:54;101085.75;;;1.10
27715;BMP280;16051;53.024;8.630;2022-12-10T17:09:58;101090.00;;;1.14
27715;BMP280;16051;53.024;8.630;2022-12-10T17:14:01;101081.88;;;1.07
27715;BMP280;16051;53.024;8.630;2022-12-10T17:18:18;101088.16;;;0.97
27715;BMP280;16051;53.024;8.630;2022-12-10T17:22:20;101091.66;;;0.97
27715;BMP280;16051;53.024;8.630;2022-12-10T17:26:37;101085.44;;;0.97
27715;BMP280;16051;53.024;8.630;2022-12-10T17:30:39;101082.75;;;0.93
27715;BMP280;16051;53.024;8.630;2022-12-10T17:34:42;101085.88;;;0.88
27715;BMP280;16051;53.024;8.630;2022-12-10T17:38:44;101094.81;;;0.89
27715;BMP280;16051;53.024;8.630;2022-12-10T17:42:50;101095.19;;;0.87
27715;BMP280;16051;53.024;8.630;2022-12-10T17:46:59;101094.81;;;0.85
27715;BMP280;16051;53.024;8.630;2022-12-10T17:51:02;101107.28;;;0.83
27715;BMP280;16051;53.024;8.630;2022-12-10T17:55:05;101107.25;;;0.86
27715;BMP280;16051;53.024;8.630;2022-12-10T17:59:11;101116.94;;;0.91
27715;BMP280;16051;53.024;8.630;2022-12-10T18:03:16;101115.38;;;0.97
27715;BMP280;16051;53.024;8.630;2022-12-10T18:07:19;101116.53;;;0.92
27715;BMP280;16051;53.024;8.630;2022-12-10T18:11:27;101122.75;;;0.96
27715;BMP280;16051;53.024;8.630;2022-12-10T18:15:31;101125.47;;;0.96
27715;BMP280;16051;53.024;8.630;2022-12-10T18:19:44;101124.28;;;1.01
27715;BMP280;16051;53.024;8.630;2022-12-10T18:23:46;101124.69;;;0.96
27715;BMP280;16051;53.024;8.630;2022-12-10T18:27:49;101131.69;;;0.93
27715;BMP280;16051;53.024;8.630;2022-12-10T18:31:54;101128.94;;;1.04
27715;BMP280;16051;53.024;8.630;2022-12-10T18:35:57;101119.22;;;1.03
27715;BMP280;16051;53.024;8.630;2022-12-10T18:40:15;101118.88;;;0.94
27715;BMP280;16051;53.024;8.630;2022-12-10T18:44:20;101122.38;;;0.91
27715;BMP280;16051;53.024;8.630;2022-12-10T18:48:30;101116.56;;;0.85
27715;BMP280;16051;53.024;8.630;2022-12-10T18:52:32;101121.63;;;0.83
27715;BMP280;16051;53.024;8.630;2022-12-10T18:56:35;101122.03;;;0.78
27715;BMP280;16051;53.024;8.630;2022-12-10T19:00:37;101128.25;;;0.79
27715;BMP280;16051;53.024;8.630;2022-12-10T19:04:41;101129.75;;;0.87
27715;BMP280;16051;53.024;8.630;2022-12-10T19:08:51;101135.69;;;0.68
27715;BMP280;16051;53.024;8.630;2022-12-10T19:12:53;101140.31;;;0.71
27715;BMP280;16051;53.024;8.630;2022-12-10T19:16:56;101134.13;;;0.70
27715;BMP280;16051;53.024;8.630;2022-12-10T19:21:03;101138.38;;;0.71
27715;BMP280;16051;53.024;8.630;2022-12-10T19:25:06;101138.00;;;0.69
27715;BMP280;16051;53.024;8.630;2022-12-10T19:29:28;101130.25;;;0.64
27715;BMP280;16051;53.024;8.630;2022-12-10T19:33:30;101129.47;;;0.67
27715;BMP280;16051;53.024;8.630;2022-12-10T19:37:36;101130.22;;;0.75
27715;BMP280;16051;53.024;8.630;2022-12-10T19:41:55;101124.38;;;0.73
27715;BMP280;16051;53.024;8.630;2022-12-10T19:45:59;101137.59;;;0.74
27715;BMP280;16051;53.024;8.630;2022-12-10T19:50:34;101133.75;;;0.68
27715;BMP280;16051;53.024;8.630;2022-12-10T19:54:45;101137.59;;;0.71
27715;BMP280;16051;53.024;8.630;2022-12-10T19:58:52;101136.44;;;0.72
27715;BMP280;16051;53.024;8.630;2022-12-10T20:02:56;101142.66;;;0.72
27715;BMP280;16051;53.024;8.630;2022-12-10T20:06:58;101136.47;;;0.61
27715;BMP280;16051;53.024;8.630;2022-12-10T20:11:06;101132.59;;;0.55
27715;BMP280;16051;53.024;8.630;2022-12-10T20:15:08;101127.97;;;0.48
27715;BMP280;16051;53.024;8.630;2022-12-10T20:19:13;101141.94;;;0.51
27715;BMP280;16051;53.024;8.630;2022-12-10T20:23:16;101136.50;;;0.40
27715;BMP280;16051;53.024;8.630;2022-12-10T20:27:20;101141.19;;;0.43
27715;BMP280;16051;53.024;8.630;2022-12-10T20:31:22;101147.38;;;0.51
27715;BMP280;16051;53.024;8.630;2022-12-10T20:35:38;101122.91;;;0.43
27715;BMP280;16051;53.024;8.630;2022-12-10T20:39:40;101138.81;;;0.52
27715;BMP280;16051;53.024;8.630;2022-12-10T20:43:44;101147.38;;;0.51
27715;BMP280;16051;53.024;8.630;2022-12-10T20:47:46;101131.47;;;0.38
27715;BMP280;16051;53.024;8.630;2022-12-10T20:52:01;101148.56;;;0.42
27715;BMP280;16051;53.024;8.630;2022-12-10T20:56:09;101141.56;;;0.38
27715;BMP280;16051;53.024;8.630;2022-12-10T21:00:17;101144.69;;;0.47
27715;BMP280;16051;53.024;8.630;2022-12-10T21:04:23;101141.56;;;0.41
27715;BMP280;16051;53.024;8.630;2022-12-10T21:08:26;101140.78;;;0.41
27715;BMP280;16051;53.024;8.630;2022-12-10T21:12:29;101141.56;;;0.45
27715;BMP280;16051;53.024;8.630;2022-12-10T21:16:32;101145.44;;;0.40
27715;BMP280;16051;53.024;8.630;2022-12-10T21:21:06;101131.84;;;0.40
27715;BMP280;16051;53.024;8.630;2022-12-10T21:25:09;101129.16;;;0.33
27715;BMP280;16051;53.024;8.630;2022-12-10T21:29:12;101141.56;;;0.38
27715;BMP280;16051;53.024;8.630;2022-12-10T21:33:22;101145.06;;;0.38
27715;BMP280;16051;53.024;8.630;2022-12-10T21:37:24;101137.69;;;0.42
27715;BMP280;16051;53.024;8.630;2022-12-10T21:41:26;101136.91;;;0.38
27715;BMP280;16051;53.024;8.630;2022-12-10T21:45:48;101135.78;;;0.36
27715;BMP280;16051;53.024;8.630;2022-12-10T21:49:53;101130.69;;;0.45
27715;BMP280;16051;53.024;8.630;2022-12-10T21:53:58;101138.88;;;0.34
27715;BMP280;16051;53.024;8.630;2022-12-10T21:58:01;101139.66;;;0.28
27715;BMP280;16051;53.024;8.630;2022-12-10T22:02:03;101124.91;;;0.29
27715;BMP280;16051;53.024;8.630;2022-12-10T22:06:07;101126.06;;;0.31
27715;BMP280;16051;53.024;8.630;2022-12-10T22:10:12;101125.28;;;0.27
27715;BMP280;16051;53.024;8.630;2022-12-10T22:14:21;101125.31;;;0.24
27715;BMP280;16051;53.024;8.630;2022-12-10T22:18:23;101123.38;;;0.17
27715;BMP280;16051;53.024;8.630;2022-12-10T22:22:27;101121.81;;;0.16
27715;BMP280;16051;53.024;8.630;2022-12-10T22:26:29;101122.59;;;0.20
27715;BMP280;16051;53.024;8.630;2022-12-10T22:30:31;101110.16;;;0.26
27715;BMP280;16051;53.024;8.630;2022-12-10T22:34:33;101116.00;;;0.21
27715;BMP280;16051;53.024;8.630;2022-12-10T22:38:38;101115.22;;;0.14
27715;BMP280;16051;53.024;8.630;2022-12-10T22:42:40;101116.38;;;0.09
27715;BMP280;16051;53.024;8.630;2022-12-10T22:46:42;101128.03;;;0.10
27715;BMP280;16051;53.024;8.630;2022-12-10T22:50:44;101133.06;;;0.11
27715;BMP280;16051;53.024;8.630;2022-12-10T22:54:48;101122.19;;;0.18
27715;BMP280;16051;53.024;8.630;2022-12-10T22:58:57;101133.06;;;0.11
27715;BMP280;16051;53.024;8.630;2022-12-10T23:03:00;101137.34;;;0.16
27715;BMP280;16051;53.024;8.630;2022-12-10T23:07:02;101143.56;;;0.16
27715;BMP280;16051;53.024;8.630;2022-12-10T23:11:08;101132.31;;;0.14
27715;BMP280;16051;53.024;8.630;2022-12-10T23:15:11;101135.03;;;0.18
27715;BMP280;16051;53.024;8.630;2022-12-10T23:19:13;101139.69;;;0.17
27715;BMP280;16051;53.024;8.630;2022-12-10T23:23:16;101132.69;;;0.16
27715;BMP280;16051;53.024;8.630;2022-12-10T23:27:20;101126.44;;;0.26
27715;BMP280;16051;53.024;8.630;2022-12-10T23:31:22;101123.75;;;0.19
27715;BMP280;16051;53.024;8.630;2022-12-10T23:35:24;101124.16;;;0.21
27715;BMP280;16051;53.024;8.630;2022-12-10T23:39:27;101118.31;;;0.16
27715;BMP280;16051;53.024;8.630;2022-12-10T23:43:31;101114.44;;;0.13
27715;BMP280;16051;53.024;8.630;2022-12-10T23:47:33;101121.03;;;0.16